createdAt,value
2023-02-24T00:00:33.821Z,18.90
2023-02-24T00:03:11.170Z,19.55
2023-02-24T00:05:44.572Z,20.17
2023-02-24T00:08:12.669Z,22.42
2023-02-24T00:10:40.664Z,16.90
2023-02-24T00:13:12.071Z,19.77
2023-02-24T00:15:40.295Z,18.30
2023-02-24T00:18:08.679Z,19.83
2023-02-24T00:20:37.427Z,18.05
2023-02-24T00:23:05.464Z,18.50
2023-02-24T00:25:33.487Z,20.38
2023-02-24T00:28:02.467Z,18.80
2023-02-24T00:30:33.101Z,20.52
2023-02-24T00:33:03.485Z,23.77
2023-02-24T00:35:32.271Z,22.05
2023-02-24T00:38:00.987Z,19.58
2023-02-24T00:40:30.850Z,15.57
2023-02-24T00:43:00.756Z,21.30
2023-02-24T00:45:30.916Z,20.38
2023-02-24T00:48:00.552Z,19.25
2023-02-24T00:50:28.484Z,21.15
2023-02-24T00:52:56.479Z,19.30
2023-02-24T00:55:27.826Z,20.17
2023-02-24T00:57:56.367Z,19.33
2023-02-24T01:00:24.525Z,22.85
2023-02-24T01:02:52.676Z,22.33
2023-02-24T01:05:22.044Z,25.27
2023-02-24T01:07:50.041Z,24.70
2023-02-24T01:10:18.523Z,17.80
2023-02-24T01:12:51.187Z,22.17
2023-02-24T01:15:22.312Z,22.27
2023-02-24T01:17:50.469Z,17.58
2023-02-24T01:20:19.702Z,16.02
2023-02-24T01:22:53.069Z,19.45
2023-02-24T01:25:21.711Z,19.52
2023-02-24T01:27:50.684Z,17.98
2023-02-24T01:30:18.959Z,21.35
2023-02-24T01:32:48.292Z,20.52
2023-02-24T01:35:17.738Z,19.45
2023-02-24T01:37:46.369Z,18.73
2023-02-24T01:40:21.820Z,20.40
2023-02-24T01:42:50.826Z,21.05
2023-02-24T01:45:25.193Z,21.67
2023-02-24T01:47:54.718Z,17.10
2023-02-24T01:50:26.174Z,25.88
2023-02-24T01:52:58.860Z,20.80
2023-02-24T01:55:32.180Z,20.60
2023-02-24T01:58:05.309Z,27.08
2023-02-24T02:00:47.072Z,19.75
2023-02-24T02:03:23.553Z,22.98
2023-02-24T02:05:51.922Z,24.88
2023-02-24T02:08:21.792Z,26.48
2023-02-24T02:10:57.998Z,27.25
2023-02-24T02:13:27.733Z,31.88
2023-02-24T02:16:07.816Z,26.38
2023-02-24T02:18:48.776Z,30.42
2023-02-24T02:21:59.633Z,29.75
2023-02-24T02:24:37.793Z,33.70
2023-02-24T02:27:35.502Z,30.50
2023-02-24T02:30:34.583Z,23.50
2023-02-24T02:34:05.461Z,28.73
2023-02-24T02:36:39.950Z,26.17
2023-02-24T02:39:15.845Z,24.85
2023-02-24T02:41:53.802Z,28.83
2023-02-24T02:44:26.743Z,22.05
2023-02-24T02:46:58.738Z,23.65
2023-02-24T02:49:33.180Z,19.55
2023-02-24T02:52:07.515Z,24.15
2023-02-24T02:54:45.500Z,25.10
2023-02-24T02:57:20.527Z,21.25
2023-02-24T02:59:54.650Z,23.08
2023-02-24T03:02:28.497Z,20.10
2023-02-24T03:05:04.949Z,22.92
2023-02-24T03:07:40.479Z,26.75
2023-02-24T03:10:17.751Z,25.58
2023-02-24T03:12:48.873Z,23.92
2023-02-24T03:15:21.073Z,21.65
2023-02-24T03:17:56.027Z,21.15
2023-02-24T03:20:32.739Z,29.02
2023-02-24T03:23:04.887Z,29.48
2023-02-24T03:25:44.607Z,25.92
2023-02-24T03:28:19.333Z,29.05
2023-02-24T03:30:53.446Z,33.28
2023-02-24T03:33:26.423Z,27.05
2023-02-24T03:36:01.706Z,28.85
2023-02-24T03:38:33.887Z,32.80
2023-02-24T03:41:02.682Z,29.40
2023-02-24T03:43:35.901Z,27.75
2023-02-24T03:46:06.696Z,27.90
2023-02-24T03:48:39.232Z,27.42
2023-02-24T03:51:09.832Z,34.42
2023-02-24T03:53:58.077Z,34.65
2023-02-24T03:56:40.460Z,29.10
2023-02-24T03:59:18.754Z,29.92
2023-02-24T04:01:56.160Z,29.38
2023-02-24T04:04:30.035Z,29.88
2023-02-24T04:07:16.240Z,28.77
2023-02-24T04:09:51.093Z,24.58
2023-02-24T04:12:24.675Z,26.10
2023-02-24T04:14:59.618Z,24.63
2023-02-24T04:17:32.655Z,32.65
2023-02-24T04:20:12.879Z,24.95
2023-02-24T04:22:50.158Z,30.30
2023-02-24T04:25:24.463Z,26.67
2023-02-24T04:27:55.608Z,28.88
2023-02-24T04:30:26.759Z,26.35
2023-02-24T04:32:56.558Z,22.40
2023-02-24T04:35:27.836Z,20.90
2023-02-24T04:37:58.876Z,26.67
2023-02-24T04:40:27.915Z,22.80
2023-02-24T04:42:56.315Z,30.85
2023-02-24T04:45:26.792Z,22.25
2023-02-24T04:48:01.062Z,19.48
2023-02-24T04:50:31.049Z,21.05
2023-02-24T04:53:02.639Z,28.05
2023-02-24T04:55:33.347Z,26.25
2023-02-24T04:58:02.019Z,25.67
2023-02-24T05:00:35.507Z,22.77
2023-02-24T05:03:05.737Z,24.48
2023-02-24T05:05:34.322Z,23.75
2023-02-24T05:08:06.498Z,24.58
2023-02-24T05:10:38.897Z,23.92
2023-02-24T05:13:09.174Z,22.90
2023-02-24T05:15:41.845Z,27.47
2023-02-24T05:18:14.111Z,24.33
2023-02-24T05:21:02.493Z,21.77
2023-02-24T05:23:34.494Z,24.77
2023-02-24T05:26:08.539Z,18.85
2023-02-24T05:28:37.071Z,22.63
2023-02-24T05:31:08.509Z,21.65
2023-02-24T05:33:37.788Z,20.67
2023-02-24T05:36:08.707Z,25.75
2023-02-24T05:38:38.995Z,24.80
2023-02-24T05:41:08.366Z,23.92
2023-02-24T05:43:39.301Z,23.95
2023-02-24T05:46:07.496Z,23.13
2023-02-24T05:48:36.033Z,21.50
2023-02-24T05:51:08.229Z,21.50
2023-02-24T05:53:41.313Z,21.60
2023-02-24T05:56:09.756Z,21.03
2023-02-24T05:58:39.495Z,18.70
2023-02-24T06:01:16.278Z,24.90
2023-02-24T06:03:48.025Z,13.37
2023-02-24T06:06:17.821Z,13.05
2023-02-24T06:08:50.691Z,16.25
2023-02-24T06:11:21.126Z,16.63
2023-02-24T06:13:49.392Z,16.92
2023-02-24T06:16:18.858Z,15.90
2023-02-24T06:18:49.393Z,18.30
2023-02-24T06:21:17.564Z,15.20
2023-02-24T06:23:47.544Z,15.30
2023-02-24T06:26:19.495Z,15.10
2023-02-24T06:28:48.166Z,16.00
2023-02-24T06:31:16.473Z,20.85
2023-02-24T06:33:44.445Z,28.63
2023-02-24T06:36:14.378Z,16.23
2023-02-24T06:38:42.679Z,21.20
2023-02-24T06:41:12.039Z,20.70
2023-02-24T06:43:40.784Z,18.10
2023-02-24T06:46:09.448Z,21.83
2023-02-24T06:48:38.015Z,22.92
2023-02-24T06:51:07.694Z,19.33
2023-02-24T06:53:36.050Z,21.52
2023-02-24T06:56:14.770Z,19.00
2023-02-24T06:58:45.329Z,15.80
2023-02-24T07:01:14.092Z,24.43
2023-02-24T07:03:47.954Z,14.13
2023-02-24T07:06:23.947Z,18.87
2023-02-24T07:08:53.456Z,16.30
2023-02-24T07:11:22.413Z,15.23
2023-02-24T07:13:54.479Z,17.97
2023-02-24T07:16:25.795Z,15.27
2023-02-24T07:18:56.659Z,14.30
2023-02-24T07:21:26.852Z,16.25
2023-02-24T07:23:58.772Z,15.13
2023-02-24T07:26:30.368Z,26.93
2023-02-24T07:29:04.277Z,16.85
2023-02-24T07:31:34.565Z,16.43
2023-02-24T07:34:02.697Z,17.92
2023-02-24T07:36:34.983Z,19.47
2023-02-24T07:39:03.896Z,18.80
2023-02-24T07:41:31.982Z,20.60
2023-02-24T07:44:03.316Z,14.55
2023-02-24T07:46:32.440Z,18.23
2023-02-24T07:49:01.580Z,22.27
2023-02-24T07:51:29.893Z,16.05
2023-02-24T07:54:00.295Z,19.80
2023-02-24T07:56:31.088Z,16.05
2023-02-24T07:59:02.161Z,15.30
2023-02-24T08:01:38.868Z,19.57
2023-02-24T08:04:09.140Z,19.42
2023-02-24T08:06:39.365Z,15.17
2023-02-24T08:09:18.286Z,15.50
2023-02-24T08:11:49.220Z,20.58
2023-02-24T08:14:23.566Z,18.42
2023-02-24T08:16:59.352Z,24.83
2023-02-24T08:19:32.868Z,20.17
2023-02-24T08:22:19.251Z,20.92
2023-02-24T08:24:50.223Z,21.40
2023-02-24T08:27:20.209Z,16.23
2023-02-24T08:30:01.687Z,19.33
2023-02-24T08:32:33.966Z,18.17
2023-02-24T08:35:04.852Z,18.25
2023-02-24T08:37:39.844Z,19.63
2023-02-24T08:40:29.741Z,17.10
2023-02-24T08:42:58.744Z,19.58
2023-02-24T08:45:33.473Z,18.90
2023-02-24T08:48:13.834Z,18.10
2023-02-24T08:50:45.639Z,20.20
2023-02-24T08:53:19.201Z,21.80
2023-02-24T08:55:51.794Z,31.27
2023-02-24T08:58:27.052Z,22.83
2023-02-24T09:00:59.371Z,23.65
2023-02-24T09:03:29.754Z,27.65
2023-02-24T09:06:04.590Z,22.83
2023-02-24T09:08:34.377Z,20.90
2023-02-24T09:11:08.045Z,22.55
2023-02-24T09:13:37.389Z,23.27
2023-02-24T09:16:16.359Z,27.33
2023-02-24T09:18:44.743Z,22.38
2023-02-24T09:21:31.348Z,23.15
2023-02-24T09:24:00.431Z,22.38
2023-02-24T09:26:32.686Z,28.92
2023-02-24T09:29:00.775Z,31.45
2023-02-24T09:31:40.843Z,29.33
2023-02-24T09:34:10.768Z,26.75
2023-02-24T09:36:45.021Z,26.40
2023-02-24T09:39:15.630Z,30.73
2023-02-24T09:41:56.838Z,29.17
2023-02-24T09:44:34.962Z,30.20
2023-02-24T09:47:14.060Z,31.55
2023-02-24T09:49:48.771Z,33.10
2023-02-24T09:52:19.508Z,35.08
2023-02-24T09:55:09.747Z,30.80
2023-02-24T09:58:02.904Z,31.55
2023-02-24T10:00:33.658Z,30.25
2023-02-24T10:03:19.782Z,29.90
2023-02-24T10:05:58.966Z,31.48
2023-02-24T10:08:34.521Z,32.65
2023-02-24T10:11:08.144Z,28.48
2023-02-24T10:13:40.283Z,35.42
2023-02-24T10:16:12.318Z,36.10
2023-02-24T10:18:46.956Z,26.38
2023-02-24T10:21:30.753Z,31.92
2023-02-24T10:24:14.446Z,29.50
2023-02-24T10:27:00.698Z,31.95
2023-02-24T10:29:50.881Z,28.02
2023-02-24T10:32:24.246Z,24.65
2023-02-24T10:34:54.497Z,27.38
2023-02-24T10:37:29.077Z,29.55
2023-02-24T10:39:59.600Z,27.17
2023-02-24T10:42:31.793Z,23.50
2023-02-24T10:45:18.112Z,25.65
2023-02-24T10:47:56.829Z,31.77
2023-02-24T10:50:32.236Z,26.92
2023-02-24T10:53:34.510Z,24.75
2023-02-24T10:56:23.907Z,25.70
2023-02-24T10:59:20.734Z,23.50
2023-02-24T11:02:01.169Z,26.73
2023-02-24T11:04:53.941Z,29.55
2023-02-24T11:07:33.770Z,24.27
2023-02-24T11:10:12.359Z,29.05
2023-02-24T11:13:09.272Z,27.02
2023-02-24T11:16:00.891Z,31.67
2023-02-24T11:18:31.173Z,33.00
2023-02-24T11:21:01.469Z,27.52
2023-02-24T11:23:34.985Z,28.75
2023-02-24T11:26:07.978Z,35.72
2023-02-24T11:28:48.984Z,33.15
2023-02-24T11:31:29.868Z,34.08
2023-02-24T11:34:06.176Z,34.67
2023-02-24T11:36:41.348Z,36.50
2023-02-24T11:39:47.463Z,30.67
2023-02-24T11:42:20.806Z,35.55
2023-02-24T11:44:56.620Z,36.70
2023-02-24T11:47:30.163Z,22.15
2023-02-24T11:50:14.760Z,26.80
2023-02-24T11:52:47.008Z,25.85
2023-02-24T11:55:27.418Z,29.75
2023-02-24T11:58:01.398Z,26.23
2023-02-24T12:00:33.855Z,22.00
2023-02-24T12:03:09.514Z,25.52
2023-02-24T12:05:42.099Z,24.80
2023-02-24T12:08:22.531Z,22.83
2023-02-24T12:10:59.658Z,25.70
2023-02-24T12:13:38.060Z,27.60
2023-02-24T12:16:12.035Z,29.75
2023-02-24T12:18:44.520Z,29.10
2023-02-24T12:21:17.786Z,24.40
2023-02-24T12:23:48.020Z,24.00
2023-02-24T12:26:25.150Z,27.65
2023-02-24T12:29:16.752Z,34.55
2023-02-24T12:31:57.228Z,26.60
2023-02-24T12:34:37.788Z,25.67
2023-02-24T12:37:36.027Z,30.58
2023-02-24T12:40:17.725Z,22.70
2023-02-24T12:42:58.686Z,24.30
2023-02-24T12:45:39.662Z,24.65
2023-02-24T12:48:16.323Z,21.52
2023-02-24T12:50:53.047Z,24.60
2023-02-24T12:53:24.682Z,21.02
2023-02-24T12:56:04.112Z,27.83
2023-02-24T12:58:37.434Z,26.83
2023-02-24T13:01:14.626Z,29.08
2023-02-24T13:04:22.900Z,21.48
2023-02-24T13:07:02.452Z,22.70
2023-02-24T13:09:45.966Z,26.30
2023-02-24T13:12:18.420Z,24.55
2023-02-24T13:14:48.759Z,27.35
2023-02-24T13:17:20.449Z,23.30
2023-02-24T13:19:52.214Z,23.65
2023-02-24T13:22:27.855Z,25.27
2023-02-24T13:25:13.830Z,26.73
2023-02-24T13:27:44.243Z,25.08
2023-02-24T13:30:29.747Z,21.73
2023-02-24T13:33:04.143Z,20.92
2023-02-24T13:35:35.641Z,32.33
2023-02-24T13:38:22.800Z,23.10
2023-02-24T13:40:50.980Z,23.67
2023-02-24T13:43:28.174Z,20.85
2023-02-24T13:46:00.443Z,15.90
2023-02-24T13:48:55.184Z,23.67
2023-02-24T13:51:49.761Z,22.17
2023-02-24T13:54:41.957Z,27.35
2023-02-24T13:57:31.027Z,26.17
2023-02-24T14:00:11.468Z,27.90
2023-02-24T14:02:45.188Z,19.45
2023-02-24T14:05:21.298Z,26.30
2023-02-24T14:07:53.175Z,16.15
2023-02-24T14:10:24.987Z,21.70
2023-02-24T14:13:04.150Z,26.90
2023-02-24T14:15:32.839Z,25.58
2023-02-24T14:18:04.672Z,21.48
2023-02-24T14:20:33.543Z,17.98
2023-02-24T14:23:02.705Z,22.77
2023-02-24T14:25:38.779Z,32.35
2023-02-24T14:28:07.289Z,21.58
2023-02-24T14:30:38.488Z,24.23
2023-02-24T14:33:21.387Z,21.55
2023-02-24T14:35:49.840Z,24.63
2023-02-24T14:38:30.288Z,31.52
2023-02-24T14:40:58.468Z,21.17
2023-02-24T14:43:26.675Z,17.60
2023-02-24T14:45:57.591Z,21.45
2023-02-24T14:48:28.651Z,24.35
2023-02-24T14:51:02.950Z,16.75
2023-02-24T14:53:34.334Z,19.50
2023-02-24T14:56:06.187Z,22.08
2023-02-24T14:58:39.702Z,21.77
2023-02-24T15:01:19.339Z,23.02
2023-02-24T15:03:50.767Z,24.60
2023-02-24T15:06:24.984Z,18.77
2023-02-24T15:08:59.335Z,20.92
2023-02-24T15:11:29.802Z,21.55
2023-02-24T15:14:00.722Z,25.05
2023-02-24T15:16:34.442Z,21.67
2023-02-24T15:19:04.333Z,27.65
2023-02-24T15:21:33.974Z,25.27
2023-02-24T15:24:03.655Z,22.35
2023-02-24T15:26:33.440Z,22.45
2023-02-24T15:29:03.095Z,21.40
2023-02-24T15:31:31.798Z,27.92
2023-02-24T15:34:02.144Z,21.40
2023-02-24T15:36:33.907Z,27.08
2023-02-24T15:39:04.912Z,27.52
2023-02-24T15:41:41.057Z,20.05
2023-02-24T15:44:26.020Z,28.77
2023-02-24T15:46:54.415Z,19.58
2023-02-24T15:49:22.460Z,22.13
2023-02-24T15:51:53.905Z,21.17
2023-02-24T15:54:29.226Z,24.95
2023-02-24T15:56:59.077Z,29.13
2023-02-24T15:59:27.326Z,23.75
2023-02-24T16:01:55.420Z,24.77
2023-02-24T16:04:24.146Z,27.92
2023-02-24T16:06:55.916Z,25.98
2023-02-24T16:09:32.128Z,19.02
2023-02-24T16:12:01.164Z,29.27
2023-02-24T16:14:29.176Z,25.98
2023-02-24T16:16:57.292Z,19.30
2023-02-24T16:19:25.667Z,26.52
2023-02-24T16:21:55.045Z,26.30
2023-02-24T16:24:23.025Z,20.23
2023-02-24T16:26:51.219Z,30.90
2023-02-24T16:29:19.287Z,27.48
2023-02-24T16:31:47.501Z,19.67
2023-02-24T16:34:16.907Z,24.70
2023-02-24T16:36:45.311Z,25.77
2023-02-24T16:39:15.102Z,27.38
2023-02-24T16:41:43.092Z,25.00
2023-02-24T16:44:11.470Z,24.38
2023-02-24T16:46:42.261Z,22.75
2023-02-24T16:49:14.829Z,22.17
2023-02-24T16:51:42.842Z,23.65
2023-02-24T16:54:10.946Z,25.77
2023-02-24T16:56:40.340Z,23.58
2023-02-24T16:59:08.307Z,27.30
2023-02-24T17:01:36.360Z,17.08
2023-02-24T17:04:09.750Z,21.25
2023-02-24T17:06:37.775Z,18.42
2023-02-24T17:09:05.873Z,20.80
2023-02-24T17:11:34.000Z,16.80
2023-02-24T17:14:03.343Z,21.65
2023-02-24T17:16:31.545Z,20.08
2023-02-24T17:19:00.226Z,30.25
2023-02-24T17:21:29.473Z,21.38
2023-02-24T17:23:59.152Z,21.02
2023-02-24T17:26:27.732Z,27.73
2023-02-24T17:28:55.815Z,21.17
2023-02-24T17:31:28.416Z,24.23
2023-02-24T17:33:56.462Z,26.30
2023-02-24T17:36:24.549Z,26.75
2023-02-24T17:38:53.076Z,25.45
2023-02-24T17:41:21.066Z,22.00
2023-02-24T17:43:51.732Z,24.20
2023-02-24T17:46:20.212Z,28.60
2023-02-24T17:48:49.687Z,23.30
2023-02-24T17:51:19.766Z,32.38
2023-02-24T17:53:47.933Z,24.13
2023-02-24T17:56:15.936Z,22.27
2023-02-24T17:58:43.919Z,27.35
2023-02-24T18:01:12.664Z,25.40
2023-02-24T18:03:40.819Z,27.20
2023-02-24T18:06:12.214Z,21.52
2023-02-24T18:08:41.292Z,26.25
2023-02-24T18:11:12.417Z,31.42
2023-02-24T18:13:40.405Z,22.70
2023-02-24T18:16:11.102Z,21.95
2023-02-24T18:18:39.588Z,32.67
2023-02-24T18:21:08.612Z,24.92
2023-02-24T18:23:40.454Z,22.10
2023-02-24T18:26:10.285Z,20.73
2023-02-24T18:28:38.665Z,21.13
2023-02-24T18:31:12.355Z,28.40
2023-02-24T18:33:40.599Z,23.08
2023-02-24T18:36:10.226Z,24.83
2023-02-24T18:38:39.696Z,17.42
2023-02-24T18:41:09.590Z,22.42
2023-02-24T18:43:38.682Z,30.17
2023-02-24T18:46:09.057Z,25.20
2023-02-24T18:48:37.637Z,23.55
2023-02-24T18:51:05.885Z,23.05
2023-02-24T18:53:36.872Z,18.80
2023-02-24T18:56:08.858Z,20.08
2023-02-24T18:58:38.634Z,19.70
2023-02-24T19:01:12.608Z,21.77
2023-02-24T19:03:41.057Z,18.23
2023-02-24T19:06:09.091Z,24.80
2023-02-24T19:08:37.049Z,24.58
2023-02-24T19:11:10.659Z,24.63
2023-02-24T19:13:38.764Z,28.63
2023-02-24T19:16:07.965Z,22.95
2023-02-24T19:18:36.463Z,18.92
2023-02-24T19:21:06.580Z,21.98
2023-02-24T19:23:34.868Z,20.25
2023-02-24T19:26:03.074Z,17.25
2023-02-24T19:28:32.445Z,16.02
2023-02-24T19:31:00.534Z,16.92
2023-02-24T19:33:28.605Z,14.88
2023-02-24T19:35:59.883Z,14.55
2023-02-24T19:38:28.488Z,19.35
2023-02-24T19:40:59.001Z,15.77
2023-02-24T19:43:27.430Z,22.77
2023-02-24T19:45:56.820Z,12.52
2023-02-24T19:48:24.856Z,11.00
2023-02-24T19:50:52.848Z,14.25
2023-02-24T19:53:20.771Z,15.85
2023-02-24T19:55:51.669Z,22.00
2023-02-24T19:58:19.738Z,14.70
2023-02-24T20:00:48.458Z,16.25
2023-02-24T20:03:17.961Z,15.57
2023-02-24T20:05:45.925Z,14.82
2023-02-24T20:08:13.881Z,10.27
2023-02-24T20:10:41.826Z,14.90
2023-02-24T20:13:09.825Z,14.75
2023-02-24T20:15:37.878Z,13.13
2023-02-24T20:18:08.824Z,13.63
2023-02-24T20:20:38.442Z,18.55
2023-02-24T20:23:06.428Z,12.75
2023-02-24T20:25:34.411Z,13.27
2023-02-24T20:28:03.011Z,12.82
2023-02-24T20:30:31.042Z,9.95
2023-02-24T20:32:59.632Z,10.40
2023-02-24T20:35:28.554Z,11.85
2023-02-24T20:37:57.879Z,15.13
2023-02-24T20:40:25.855Z,9.05
2023-02-24T20:42:53.847Z,6.93
2023-02-24T20:45:21.953Z,5.93
2023-02-24T20:47:51.064Z,7.55
2023-02-24T20:50:19.265Z,8.25
2023-02-24T20:52:47.289Z,12.13
2023-02-24T20:55:16.817Z,10.88
2023-02-24T20:57:44.797Z,5.80
2023-02-24T21:00:15.506Z,4.95
2023-02-24T21:02:44.105Z,9.93
2023-02-24T21:05:20.427Z,7.03
2023-02-24T21:07:50.737Z,8.45
2023-02-24T21:10:22.504Z,5.25
2023-02-24T21:12:52.540Z,6.72
2023-02-24T21:15:21.823Z,7.78
2023-02-24T21:17:49.784Z,8.25
2023-02-24T21:20:17.781Z,5.97
2023-02-24T21:22:45.793Z,7.00
2023-02-24T21:25:13.779Z,12.88
2023-02-24T21:27:43.136Z,9.27
2023-02-24T21:30:12.334Z,9.57
2023-02-24T21:32:40.318Z,8.30
2023-02-24T21:35:09.396Z,9.85
2023-02-24T21:37:37.356Z,9.35
2023-02-24T21:40:11.107Z,8.48
2023-02-24T21:42:41.962Z,8.80
2023-02-24T21:45:12.216Z,8.82
2023-02-24T21:47:41.005Z,9.32
2023-02-24T21:50:12.065Z,9.35
2023-02-24T21:52:40.529Z,11.77
2023-02-24T21:55:09.689Z,12.80
2023-02-24T21:57:41.302Z,12.82
2023-02-24T22:00:18.305Z,8.27
2023-02-24T22:02:47.503Z,9.35
2023-02-24T22:05:16.696Z,13.68
2023-02-24T22:07:45.038Z,10.18
2023-02-24T22:10:14.417Z,8.73
2023-02-24T22:12:42.386Z,6.53
2023-02-24T22:15:12.662Z,7.13
2023-02-24T22:17:41.809Z,7.05
2023-02-24T22:20:13.692Z,8.10
2023-02-24T22:22:43.426Z,6.53
2023-02-24T22:25:12.006Z,6.55
2023-02-24T22:27:40.068Z,6.35
2023-02-24T22:30:09.572Z,6.80
2023-02-24T22:32:38.972Z,6.07
2023-02-24T22:35:07.877Z,9.88
2023-02-24T22:37:35.911Z,9.70
2023-02-24T22:40:03.947Z,7.65
2023-02-24T22:42:31.954Z,7.57
2023-02-24T22:45:00.270Z,5.95
2023-02-24T22:47:28.266Z,7.65
2023-02-24T22:49:57.645Z,4.88
2023-02-24T22:52:26.803Z,4.78
2023-02-24T22:54:55.562Z,9.02
2023-02-24T22:57:23.523Z,7.10
2023-02-24T22:59:51.466Z,6.13
2023-02-24T23:02:19.458Z,4.65
2023-02-24T23:04:47.492Z,7.25
2023-02-24T23:07:16.862Z,6.43
2023-02-24T23:09:52.937Z,6.95
2023-02-24T23:12:22.301Z,4.35
2023-02-24T23:14:50.332Z,4.07
2023-02-24T23:17:18.355Z,9.35
2023-02-24T23:19:46.320Z,5.50
2023-02-24T23:22:14.783Z,4.10
2023-02-24T23:24:44.736Z,4.82
2023-02-24T23:27:12.736Z,7.00
2023-02-24T23:29:40.977Z,4.32
2023-02-24T23:32:09.051Z,5.10
2023-02-24T23:34:37.099Z,7.13
2023-02-24T23:37:05.804Z,8.73
2023-02-24T23:39:33.942Z,5.97
2023-02-24T23:42:03.350Z,7.93
2023-02-24T23:44:31.374Z,5.88
2023-02-24T23:47:01.234Z,4.82
2023-02-24T23:49:42.402Z,5.25
2023-02-24T23:52:14.293Z,6.95
2023-02-24T23:54:42.252Z,5.57
2023-02-24T23:57:11.609Z,11.45
2023-02-24T23:59:39.593Z,4.93
